Time;durP1;ratioP1;P1;durP2;ratioP2;P2;SDS_P1;SDS_P2;PMS_P1;PMS_P2;Temp;Humidity;BMP_temperature;BMP_pressure;BME280_temperature;BME280_humidity;BME280_pressure;Samples;Min_cycle;Max_cycle;Signal;HPM_P1;HPM_P2
2022/11/25 05:00:28;;;;;;;1999.90;999.90;;;2.70;99.90;;;;;;6016233;22;20039;-76
2022/11/25 05:02:54;;;;;;;1999.90;999.90;;;2.80;99.90;;;;;;5014310;28;20490;-76
2022/11/25 05:05:20;;;;;;;1999.90;999.90;;;2.70;99.90;;;;;;5014405;28;20034;-75
2022/11/25 05:07:46;;;;;;;1999.90;999.90;;;2.70;99.90;;;;;;5014410;28;20041;-75
2022/11/25 05:10:12;;;;;;;1999.90;999.90;;;2.60;99.90;;;;;;5013919;28;20501;-76
2022/11/25 05:12:38;;;;;;;1999.90;999.90;;;2.50;99.90;;;;;;4996763;28;20038;-77
2022/11/25 05:15:05;;;;;;;1999.90;999.90;;;2.50;99.90;;;;;;5014713;28;20085;-76
2022/11/25 05:17:31;;;;;;;1999.90;999.90;;;2.50;99.90;;;;;;5014209;28;20045;-77
2022/11/25 05:19:57;;;;;;;1999.90;999.90;;;2.50;99.90;;;;;;5013985;28;20039;-76
2022/11/25 05:22:26;;;;;;;1999.90;999.90;;;2.60;99.90;;;;;;5013603;28;20049;-77
2022/11/25 05:24:52;;;;;;;1999.90;999.90;;;2.60;99.90;;;;;;5015791;28;20058;-77
2022/11/25 05:27:19;;;;;;;1999.90;999.90;;;2.60;99.90;;;;;;4999576;28;20121;-76
2022/11/25 05:29:45;;;;;;;1999.90;999.90;;;2.70;99.90;;;;;;5016983;28;20060;-76
2022/11/25 05:32:11;;;;;;;1999.90;999.90;;;2.60;99.90;;;;;;5017225;28;20599;-76
2022/11/25 05:34:37;;;;;;;1999.90;999.90;;;2.60;99.90;;;;;;4999407;28;20408;-77
2022/11/25 05:37:03;;;;;;;1999.90;999.90;;;2.60;99.90;;;;;;5015168;28;20046;-78
2022/11/25 05:39:29;;;;;;;1999.90;999.90;;;2.60;99.90;;;;;;4996012;28;20079;-78
2022/11/25 05:41:55;;;;;;;1999.90;999.90;;;2.60;99.90;;;;;;4988047;28;20046;-78
2022/11/25 05:44:22;;;;;;;1999.90;999.90;;;2.60;99.90;;;;;;5006908;28;20038;-78
2022/11/25 05:46:47;;;;;;;1999.90;999.90;;;2.60;99.90;;;;;;4987529;28;20027;-78
2022/11/25 05:49:14;;;;;;;1999.90;999.90;;;2.60;99.90;;;;;;5003496;28;20035;-79
2022/11/25 05:51:40;;;;;;;1999.90;999.90;;;2.60;99.90;;;;;;4978645;28;20704;-78
2022/11/25 05:54:05;;;;;;;1999.90;999.90;;;2.70;99.90;;;;;;4996799;28;20070;-79
2022/11/25 05:56:31;;;;;;;1999.90;999.90;;;2.60;99.90;;;;;;4996735;28;20081;-79
2022/11/25 05:59:01;;;;;;;1999.90;999.90;;;2.60;99.90;;;;;;4978889;28;20034;-77
2022/11/25 06:01:26;;;;;;;1999.90;999.90;;;2.50;99.90;;;;;;4996307;28;20078;-78
2022/11/25 06:03:52;;;;;;;1999.90;999.90;;;2.50;99.90;;;;;;4996648;28;20039;-77
2022/11/25 06:06:18;;;;;;;1999.90;999.90;;;2.40;99.90;;;;;;4996776;28;20034;-77
2022/11/25 06:08:44;;;;;;;1999.90;999.90;;;2.30;99.90;;;;;;4996530;28;20041;-78
2022/11/25 06:11:12;;;;;;;1999.90;999.90;;;2.20;99.90;;;;;;4978530;28;20284;-77
2022/11/25 06:13:39;;;;;;;1999.90;999.90;;;2.20;99.90;;;;;;4978638;28;20140;-76
2022/11/25 06:16:14;;;;;;;1999.90;999.90;;;2.10;99.90;;;;;;4978866;28;20042;-76
2022/11/25 06:18:40;;;;;;;1999.90;999.90;;;2.00;99.90;;;;;;4996898;28;20038;-76
2022/11/25 06:21:07;;;;;;;1999.90;999.90;;;2.10;99.90;;;;;;4978551;28;20088;-76
2022/11/25 06:23:33;;;;;;;1999.90;999.90;;;2.10;99.90;;;;;;4996539;28;20046;-75
2022/11/25 06:26:20;;;;;;;1999.90;999.90;;;2.10;99.90;;;;;;4996236;28;20039;-76
2022/11/25 06:28:46;;;;;;;1999.90;999.90;;;2.10;99.90;;;;;;4995961;28;20493;-77
2022/11/25 06:31:15;;;;;;;1999.90;999.90;;;2.10;99.90;;;;;;4978434;28;20150;-76
2022/11/25 06:33:40;;;;;;;1999.90;999.90;;;2.00;99.90;;;;;;4996208;28;20041;-77
2022/11/25 06:36:12;;;;;;;1999.90;999.90;;;2.00;99.90;;;;;;4977700;28;20037;-76
2022/11/25 06:38:37;;;;;;;1999.90;999.90;;;1.90;99.90;;;;;;4978629;28;20527;-76
2022/11/25 06:41:04;;;;;;;1999.90;999.90;;;1.90;99.90;;;;;;4995492;28;20035;-76
2022/11/25 06:43:31;;;;;;;1999.90;999.90;;;1.80;99.90;;;;;;4996161;28;20043;-76
2022/11/25 06:46:07;;;;;;;1999.90;999.90;;;1.80;99.90;;;;;;4978217;28;20463;-76
2022/11/25 06:48:34;;;;;;;1999.90;999.90;;;1.80;99.90;;;;;;4995277;28;20456;-77
2022/11/25 06:51:02;;;;;;;1999.90;999.90;;;1.70;99.90;;;;;;4995541;28;20110;-77
2022/11/25 06:53:28;;;;;;;1999.90;999.90;;;1.80;99.90;;;;;;4996883;28;20048;-78
2022/11/25 06:56:05;;;;;;;1999.90;999.90;;;1.80;99.90;;;;;;5020668;28;20505;-77
2022/11/25 06:58:31;;;;;;;1999.90;999.90;;;1.80;99.90;;;;;;5035196;28;20041;-77
2022/11/25 07:01:11;;;;;;;1999.90;999.90;;;1.80;99.90;;;;;;5034766;28;20403;-77
2022/11/25 07:03:37;;;;;;;1999.90;999.90;;;1.80;99.90;;;;;;5017161;28;20120;-77
2022/11/25 07:06:06;;;;;;;1999.90;999.90;;;1.80;99.90;;;;;;5035589;28;20042;-77
2022/11/25 07:08:32;;;;;;;1999.90;999.90;;;1.80;99.90;;;;;;5017310;28;20036;-77
2022/11/25 07:11:07;;;;;;;1999.90;999.90;;;1.80;99.90;;;;;;5035211;28;20040;-77
2022/11/25 07:13:33;;;;;;;1999.90;999.90;;;1.80;99.90;;;;;;5034966;28;20116;-79
2022/11/25 07:16:05;;;;;;;1999.90;999.90;;;1.80;99.90;;;;;;5035222;28;20443;-79
2022/11/25 07:18:33;;;;;;;1999.90;999.90;;;1.80;99.90;;;;;;5035156;28;20037;-80
2022/11/25 07:21:11;;;;;;;1999.90;999.90;;;1.80;99.90;;;;;;5034647;28;20041;-77
2022/11/25 07:23:37;;;;;;;1999.90;999.90;;;1.80;99.90;;;;;;5017223;28;20646;-77
2022/11/25 07:26:05;;;;;;;1999.90;999.90;;;1.80;99.90;;;;;;5034733;28;20483;-76
2022/11/25 07:28:31;;;;;;;1999.90;999.90;;;1.90;99.90;;;;;;5016895;28;20069;-77
2022/11/25 07:31:07;;;;;;;1999.90;999.90;;;2.00;99.90;;;;;;5034954;28;20038;-77
2022/11/25 07:33:33;;;;;;;1999.90;999.90;;;2.10;99.90;;;;;;5035055;28;20038;-77
2022/11/25 07:36:06;;;;;;;1999.90;999.90;;;2.10;99.90;;;;;;5017295;28;20030;-77
2022/11/25 07:38:33;;;;;;;1999.90;999.90;;;2.20;99.90;;;;;;5035062;28;20033;-77
2022/11/25 07:41:19;;;;;;;1999.90;999.90;;;2.40;99.90;;;;;;5034369;28;20435;-77
2022/11/25 07:43:46;;;;;;;1999.90;999.90;;;2.60;99.90;;;;;;5034395;28;20034;-77
2022/11/25 07:46:17;;;;;;;1999.90;999.90;;;2.80;99.90;;;;;;5035731;28;20030;-78
2022/11/25 07:48:44;;;;;;;1999.90;999.90;;;3.00;99.90;;;;;;5034621;28;20038;-78
2022/11/25 07:51:20;;;;;;;1999.90;999.90;;;3.10;99.90;;;;;;5034456;28;20038;-78
2022/11/25 07:53:46;;;;;;;1999.90;999.90;;;3.30;99.90;;;;;;5034755;28;20566;-79
2022/11/25 07:56:12;;;;;;;1999.90;999.90;;;3.50;99.90;;;;;;5016463;28;20058;-77
2022/11/25 07:58:38;;;;;;;1999.90;999.90;;;3.60;99.90;;;;;;5034676;28;20038;-76
2022/11/25 08:01:05;;;;;;;1999.90;999.90;;;3.70;99.90;;;;;;5034062;28;20080;-76
2022/11/25 08:03:32;;;;;;;1999.90;999.90;;;3.70;99.90;;;;;;5034348;28;20121;-79
2022/11/25 08:06:06;;;;;;;1999.90;999.90;;;3.70;99.90;;;;;;5012030;28;20562;-77
2022/11/25 08:08:32;;;;;;;1999.90;999.90;;;3.80;99.90;;;;;;5014314;28;20504;-77
2022/11/25 08:10:58;;;;;;;1999.90;999.90;;;3.80;99.90;;;;;;5014086;28;20045;-77
2022/11/25 08:13:24;;;;;;;1999.90;999.90;;;3.90;99.90;;;;;;5014184;28;20041;-76
2022/11/25 08:15:49;;;;;;;1999.90;999.90;;;3.90;99.90;;;;;;5014573;28;20054;-78
2022/11/25 08:18:15;;;;;;;1999.90;999.90;;;3.80;99.90;;;;;;4996497;28;20436;-78
2022/11/25 08:20:41;;;;;;;1999.90;999.90;;;3.80;99.90;;;;;;5014293;28;20039;-77
2022/11/25 08:23:07;;;;;;;1999.90;999.90;;;3.80;99.90;;;;;;5014534;28;20045;-77
2022/11/25 08:25:32;;;;;;;1999.90;999.90;;;3.80;99.90;;;;;;5014560;28;20049;-78
2022/11/25 08:27:59;;;;;;;1999.90;999.90;;;3.90;99.90;;;;;;5014327;28;20452;-77
2022/11/25 08:30:25;;;;;;;1999.90;999.90;;;4.00;99.90;;;;;;4996476;28;20101;-77
2022/11/25 08:32:51;;;;;;;1999.90;999.90;;;4.10;99.90;;;;;;5014433;28;20056;-77
2022/11/25 08:35:17;;;;;;;1999.90;999.90;;;4.10;99.90;;;;;;5032113;28;20038;-77
2022/11/25 08:37:43;;;;;;;1999.90;999.90;;;4.20;99.90;;;;;;5014372;28;20026;-78
2022/11/25 08:40:09;;;;;;;1999.90;999.90;;;4.30;99.90;;;;;;5010132;28;20027;-77
2022/11/25 08:42:35;;;;;;;1999.90;999.90;;;4.40;99.90;;;;;;5018181;28;20043;-79
2022/11/25 08:45:01;;;;;;;1999.90;999.90;;;4.50;99.90;;;;;;5001582;28;20038;-77
2022/11/25 08:47:26;;;;;;;1999.90;999.90;;;4.50;99.90;;;;;;5015657;28;20034;-76
2022/11/25 08:49:53;;;;;;;1999.90;999.90;;;4.60;99.90;;;;;;5016569;28;20061;-78
2022/11/25 08:52:20;;;;;;;1999.90;999.90;;;4.60;99.90;;;;;;5014114;28;20077;-77
2022/11/25 08:54:45;;;;;;;1999.90;999.90;;;4.60;99.90;;;;;;5013888;28;20468;-76
2022/11/25 08:57:11;;;;;;;1999.90;999.90;;;4.70;99.90;;;;;;5013843;28;20045;-76
2022/11/25 08:59:37;;;;;;;1999.90;999.90;;;4.80;99.90;;;;;;4997568;28;20039;-75
2022/11/25 09:02:04;;;;;;;1999.90;999.90;;;4.90;99.90;;;;;;5017021;28;20108;-76
2022/11/25 09:04:30;;;;;;;1999.90;999.90;;;5.00;99.90;;;;;;5017333;28;20472;-75
2022/11/25 09:06:55;;;;;;;1999.90;999.90;;;5.10;99.90;;;;;;5017539;28;20062;-75
2022/11/25 09:09:21;;;;;;;1999.90;999.90;;;5.10;99.90;;;;;;5016223;28;20477;-75
2022/11/25 09:11:47;;;;;;;1999.90;999.90;;;5.20;99.90;;;;;;5016704;28;20109;-75
2022/11/25 09:14:12;;;;;;;1999.90;999.90;;;5.30;99.90;;;;;;5017247;28;20038;-76
2022/11/25 09:16:38;;;;;;;1999.90;999.90;;;5.50;99.90;;;;;;5016990;28;20039;-75
2022/11/25 09:19:05;;;;;;;1999.90;999.90;;;5.60;99.90;;;;;;5016509;28;20326;-76
2022/11/25 09:21:31;;;;;;;1999.90;999.90;;;5.80;99.90;;;;;;5016996;28;20026;-74
2022/11/25 09:23:57;;;;;;;1999.90;999.90;;;6.00;99.90;;;;;;5015522;28;20042;-75
2022/11/25 09:26:24;;;;;;;1999.90;999.90;;;6.10;99.90;;;;;;5016818;28;20026;-76
2022/11/25 09:28:50;;;;;;;1999.90;999.90;;;6.20;99.90;;;;;;5016572;28;20042;-77
2022/11/25 09:31:16;;;;;;;1999.90;999.90;;;6.20;99.90;;;;;;4998835;28;20030;-75
2022/11/25 09:33:43;;;;;;;1999.90;999.90;;;6.30;99.90;;;;;;5016861;28;20503;-75
2022/11/25 09:36:10;;;;;;;1999.90;999.90;;;6.30;99.90;;;;;;5016731;28;20451;-75
2022/11/25 09:38:35;;;;;;;1999.90;999.90;;;6.30;99.90;;;;;;5016529;28;20092;-77
2022/11/25 09:41:09;;;;;;;1999.90;999.90;;;6.40;99.90;;;;;;5016480;28;20037;-75
2022/11/25 09:47:04;;;;;;;1999.90;999.90;;;6.40;99.90;;;;;;5018962;28;20536;-76
2022/11/25 09:50:04;;;;;;;1999.90;999.90;;;6.40;99.90;;;;;;5016941;28;20066;-76
2022/11/25 09:52:51;;;;;;;1999.90;999.90;;;6.40;99.90;;;;;;5016564;28;20407;-76
2022/11/25 09:55:20;;;;;;;1999.90;999.90;;;6.50;99.90;;;;;;5016663;28;20473;-76
2022/11/25 09:57:59;;;;;;;1999.90;999.90;;;6.60;99.90;;;;;;5016095;28;20559;-75
2022/11/25 10:00:39;;;;;;;1999.90;999.90;;;6.70;99.90;;;;;;5015616;28;20467;-75
2022/11/25 10:03:05;;;;;;;1999.90;999.90;;;6.70;99.90;;;;;;5016503;28;20121;-75
2022/11/25 10:05:36;;;;;;;1999.90;999.90;;;7.00;99.90;;;;;;5015624;28;20436;-75
2022/11/25 10:08:13;;;;;;;1999.90;999.90;;;7.20;99.90;;;;;;5016030;28;20068;-75
2022/11/25 10:10:52;;;;;;;1999.90;999.90;;;7.50;99.90;;;;;;5015871;28;20038;-75
2022/11/25 10:13:26;;;;;;;1999.90;999.90;;;7.70;99.90;;;;;;5016596;28;20039;-75
2022/11/25 10:15:57;;;;;;;1999.90;999.90;;;7.60;99.90;;;;;;5016804;28;20484;-75
2022/11/25 10:18:33;;;;;;;1999.90;999.90;;;7.40;99.90;;;;;;5016739;28;20177;-75
2022/11/25 10:20:58;;;;;;;1999.90;999.90;;;7.30;99.90;;;;;;5016102;28;20489;-75
2022/11/25 10:23:32;;;;;;;1999.90;999.90;;;7.30;99.90;;;;;;5015866;28;20046;-75
2022/11/25 10:26:02;;;;;;;1999.90;999.90;;;7.20;99.90;;;;;;5016621;28;20488;-75
2022/11/25 10:28:33;;;;;;;1999.90;999.90;;;7.20;99.90;;;;;;4998460;28;20474;-75
2022/11/25 10:31:18;;;;;;;1999.90;999.90;;;7.20;99.90;;;;;;5015589;28;20035;-75
2022/11/25 10:33:50;;;;;;;1999.90;999.90;;;7.30;99.90;;;;;;4996529;28;20030;-75
2022/11/25 10:36:37;;;;;;;1999.90;999.90;;;7.20;99.90;;;;;;4996830;28;20031;-75
2022/11/25 10:39:11;;;;;;;1999.90;999.90;;;7.20;99.90;;;;;;4995963;28;20582;-75
2022/11/25 10:41:45;;;;;;;1999.90;999.90;;;7.10;99.90;;;;;;4996495;28;20045;-75
2022/11/25 10:44:35;;;;;;;1999.90;999.90;;;7.10;99.90;;;;;;4996313;28;20039;-75
2022/11/25 10:47:26;;;;;;;1999.90;999.90;;;7.00;99.90;;;;;;4991207;28;20053;-75
2022/11/25 10:49:57;;;;;;;1999.90;999.90;;;6.90;99.90;;;;;;4996091;28;20038;-75
2022/11/25 10:52:26;;;;;;;1999.90;999.90;;;7.00;99.90;;;;;;4996216;28;20039;-76
2022/11/25 10:54:57;;;;;;;1999.90;999.90;;;7.00;99.90;;;;;;4995918;28;20031;-76
2022/11/25 10:57:27;;;;;;;1999.90;999.90;;;7.10;99.90;;;;;;4978645;28;20114;-75
2022/11/25 10:59:56;;;;;;;1999.90;999.90;;;7.10;99.90;;;;;;4995960;28;20066;-75
2022/11/25 11:02:36;;;;;;;1999.90;999.90;;;7.20;99.90;;;;;;4995570;28;20058;-75
2022/11/25 11:05:07;;;;;;;1999.90;999.90;;;7.20;99.90;;;;;;4996153;28;20095;-75
2022/11/25 11:07:36;;;;;;;1999.90;999.90;;;7.20;99.90;;;;;;4978375;28;20390;-75
2022/11/25 11:10:16;;;;;;;1999.90;999.90;;;7.20;99.90;;;;;;4996338;28;20034;-78
2022/11/25 11:13:19;;;;;;;1999.90;999.90;;;7.20;99.90;;;;;;4978567;28;20511;-77
2022/11/25 11:15:46;;;;;;;1999.90;999.90;;;7.10;99.90;;;;;;4983679;28;20106;-76
2022/11/25 11:18:26;;;;;;;1999.90;999.90;;;7.10;99.90;;;;;;4996247;28;20031;-77
2022/11/25 11:20:54;;;;;;;1999.90;999.90;;;7.20;99.90;;;;;;4995690;28;20559;-76
2022/11/25 11:23:23;;;;;;;1999.90;999.90;;;7.20;99.90;;;;;;4995386;28;20047;-75
2022/11/25 11:26:05;;;;;;;1999.90;999.90;;;7.30;99.90;;;;;;4995920;28;20114;-75
2022/11/25 11:28:33;;;;;;;1999.90;999.90;;;7.30;99.90;;;;;;4996114;28;20035;-75
2022/11/25 11:31:16;;;;;;;1999.90;999.90;;;7.40;99.90;;;;;;4995656;28;20538;-76
2022/11/25 11:33:53;;;;;;;1999.90;999.90;;;7.50;99.90;;;;;;4996092;28;20049;-75
2022/11/25 11:36:30;;;;;;;1999.90;999.90;;;7.70;99.90;;;;;;4996052;28;20031;-76
2022/11/25 11:39:22;;;;;;;1999.90;999.90;;;7.80;99.90;;;;;;4996155;28;20037;-76
2022/11/25 11:42:10;;;;;;;1999.90;999.90;;;7.90;99.90;;;;;;4996351;28;20067;-79
2022/11/25 11:44:43;;;;;;;1999.90;999.90;;;7.90;99.90;;;;;;4996356;28;20050;-79
2022/11/25 11:47:09;;;;;;;1999.90;999.90;;;7.90;99.90;;;;;;5005384;28;20112;-78
2022/11/25 11:49:55;;;;;;;1999.90;999.90;;;7.90;99.90;;;;;;5017495;28;20049;-77
2022/11/25 11:52:47;;;;;;;1999.90;999.90;;;7.90;99.90;;;;;;4996873;28;20050;-77
2022/11/25 11:55:31;;;;;;;1999.90;999.90;;;8.00;99.90;;;;;;5015137;28;20137;-78
2022/11/25 11:58:24;;;;;;;1999.90;999.90;;;8.00;99.90;;;;;;5017035;28;20516;-81
2022/11/25 12:01:08;;;;;;;1999.90;999.90;;;8.10;99.90;;;;;;4984314;28;20050;-79
2022/11/25 12:03:40;;;;;;;1999.90;999.90;;;8.10;99.90;;;;;;5015681;28;20473;-76
2022/11/25 12:06:09;;;;;;;1999.90;999.90;;;8.10;99.90;;;;;;4997213;28;20065;-75
2022/11/25 12:08:58;;;;;;;1999.90;999.90;;;8.10;99.90;;;;;;5014905;28;20058;-76
